Time,TemperatureF,DewpointF,PressureIn,WindDirection,WindDirectionDegrees,WindSpeedMPH,WindSpeedGustMPH,Humidity,HourlyPrecipIn,Conditions,Clouds,dailyrainin,SoftwareType,DateUTC
2013-07-18 00:11:00,68.0,45.0,-100.00,SW,220,13.0,17.0,43,0.00,,,-99.99,,2013-07-18 06:11:00,
2013-07-18 00:43:00,68.0,44.0,-100.00,SW,220,17.0,22.0,43,0.00,,,-99.99,,2013-07-18 06:43:00,
2013-07-18 00:52:00,67.0,45.0,-100.00,SW,222,15.0,19.0,44,0.00,,,-99.99,,2013-07-18 06:52:00,
2013-07-18 01:01:00,67.0,45.0,-100.00,SW,222,16.0,21.0,44,0.00,,,-99.99,,2013-07-18 07:01:00,
2013-07-18 01:42:00,67.0,45.0,-100.00,SW,223,17.0,23.0,47,0.00,,,-99.99,,2013-07-18 07:42:00,
2013-07-18 01:52:00,66.0,45.0,-100.00,SW,233,13.0,19.0,46,0.00,,,-99.99,,2013-07-18 07:52:00,
2013-07-18 02:11:00,67.0,45.0,-100.00,WSW,246,15.0,21.0,45,0.00,,,-99.99,,2013-07-18 08:11:00,
2013-07-18 02:21:00,67.0,46.0,-100.00,WSW,251,15.0,21.0,47,0.00,,,-99.99,,2013-07-18 08:21:00,
2013-07-18 02:42:00,67.0,45.0,-100.00,WSW,247,13.0,17.0,45,0.00,,,-99.99,,2013-07-18 08:42:00,
2013-07-18 02:51:00,67.0,45.0,-100.00,WSW,247,15.0,21.0,45,0.00,,,-99.99,,2013-07-18 08:51:00,
2013-07-18 03:01:00,66.0,45.0,-100.00,WSW,250,12.0,19.0,46,0.00,,,-99.99,,2013-07-18 09:01:00,
2013-07-18 03:11:00,66.0,45.0,-100.00,WSW,253,12.0,18.0,45,0.00,,,-99.99,,2013-07-18 09:11:00,
2013-07-18 03:21:00,67.0,44.0,-100.00,WSW,251,12.0,17.0,43,0.00,,,-99.99,,2013-07-18 09:21:00,
2013-07-18 03:41:00,66.0,44.0,-100.00,WSW,257,13.0,17.0,45,0.00,,,-99.99,,2013-07-18 09:41:00,
2013-07-18 04:01:00,65.0,45.0,-100.00,WSW,257,12.0,20.0,47,0.00,,,-99.99,,2013-07-18 10:01:00,
2013-07-18 04:11:00,66.0,44.0,-100.00,West,264,11.0,16.0,45,0.00,,,-99.99,,2013-07-18 10:11:00,
2013-07-18 04:32:00,65.0,45.0,-100.00,West,271,10.0,16.0,47,0.00,,,-99.99,,2013-07-18 10:32:00,
2013-07-18 04:43:00,64.0,45.0,-100.00,West,265,10.0,14.0,50,0.00,,,-99.99,,2013-07-18 10:43:00,
2013-07-18 05:43:00,64.0,45.0,-100.00,WSW,258,10.0,14.0,50,0.00,,,-99.99,,2013-07-18 11:43:00,
2013-07-18 05:52:00,65.0,45.0,-100.00,WSW,257,10.0,14.0,50,0.00,,,-99.99,,2013-07-18 11:52:00,
2013-07-18 06:01:00,65.0,45.0,-100.00,West,264,10.0,18.0,50,0.00,,,-99.99,,2013-07-18 12:01:00,
2013-07-18 06:11:00,63.0,46.0,-100.00,West,271,9.0,12.0,52,0.00,,,-99.99,,2013-07-18 12:11:00,
2013-07-18 06:42:00,64.0,46.0,-100.00,WSW,257,9.0,12.0,51,0.00,,,-99.99,,2013-07-18 12:42:00,
2013-07-18 07:11:00,67.0,45.0,-100.00,West,270,7.0,11.0,45,0.00,,,-99.99,,2013-07-18 13:11:00,
2013-07-18 07:43:00,67.0,45.0,-100.00,WNW,294,4.0,7.0,46,0.00,,,-99.99,,2013-07-18 13:43:00,
2013-07-18 08:11:00,69.0,45.0,-100.00,WNW,285,8.0,10.0,43,0.00,,,-99.99,,2013-07-18 14:11:00,
2013-07-18 08:43:00,70.0,46.0,-100.00,NW,326,5.0,7.0,43,0.00,,,-99.99,,2013-07-18 14:43:00,
2013-07-18 09:01:00,67.0,49.0,-100.00,North,0,6.0,7.0,51,0.00,,,-99.99,,2013-07-18 15:01:00,
2013-07-18 10:42:00,71.0,44.0,-100.00,WNW,301,10.0,15.0,38,0.00,,,-99.99,,2013-07-18 16:42:00,
2013-07-18 11:43:00,74.0,45.0,-100.00,North,356,10.0,16.0,35,0.00,,,-99.99,,2013-07-18 17:43:00,
2013-07-18 12:43:00,76.0,45.0,-100.00,NNW,328,12.0,21.0,33,0.00,,,-99.99,,2013-07-18 18:43:00,
2013-07-18 13:01:00,77.0,45.0,-100.00,NW,323,12.0,17.0,33,0.00,,,-99.99,,2013-07-18 19:01:00,
2013-07-18 13:43:00,77.0,44.0,-100.00,WNW,301,12.0,20.0,30,0.00,,,-99.99,,2013-07-18 19:43:00,
2013-07-18 14:01:00,77.0,44.0,-100.00,WNW,291,12.0,22.0,31,0.00,,,-99.99,,2013-07-18 20:01:00,
2013-07-18 14:11:00,78.0,44.0,-100.00,NW,308,12.0,21.0,31,0.00,,,-99.99,,2013-07-18 20:11:00,
2013-07-18 14:43:00,78.0,45.0,-100.00,WNW,292,14.0,21.0,31,0.00,,,-99.99,,2013-07-18 20:43:00,
2013-07-18 15:11:00,76.0,44.0,-100.00,WNW,291,9.0,14.0,32,0.00,,,-99.99,,2013-07-18 21:11:00,
2013-07-18 15:43:00,77.0,44.0,-100.00,WNW,299,10.0,16.0,31,0.00,,,-99.99,,2013-07-18 21:43:00,
2013-07-18 17:42:00,72.0,47.0,-100.00,South,172,12.0,16.0,41,0.00,,,-99.99,,2013-07-18 23:42:00,
2013-07-18 18:11:00,71.0,50.0,-100.00,SE,124,9.0,15.0,47,0.00,,,-99.99,,2013-07-19 00:11:00,
2013-07-18 18:43:00,72.0,50.0,-100.00,SSE,162,7.0,11.0,45,0.00,,,-99.99,,2013-07-19 00:43:00,
2013-07-18 19:01:00,73.0,51.0,-100.00,WNW,295,1.0,5.0,46,0.00,,,-99.99,,2013-07-19 01:01:00,
2013-07-18 19:42:00,70.0,54.0,-100.00,ESE,110,11.0,16.0,56,0.00,,,-99.99,,2013-07-19 01:42:00,
2013-07-18 20:11:00,69.0,53.0,-100.00,SE,138,12.0,20.0,57,0.00,,,-99.99,,2013-07-19 02:11:00,
2013-07-18 20:42:00,65.0,54.0,-100.00,SE,137,13.0,21.0,68,0.00,,,-99.99,,2013-07-19 02:42:00,
2013-07-18 21:11:00,64.0,54.0,-100.00,SE,144,13.0,19.0,71,0.00,,,-99.99,,2013-07-19 03:11:00,
2013-07-18 21:42:00,64.0,53.0,-100.00,SSE,151,14.0,18.0,67,0.00,,,-99.99,,2013-07-19 03:42:00,
2013-07-18 22:12:00,63.0,53.0,-100.00,SSE,165,18.0,26.0,70,0.00,,,-99.99,,2013-07-19 04:12:00,
2013-07-18 22:43:00,63.0,52.0,-100.00,SSE,158,16.0,21.0,67,0.00,,,-99.99,,2013-07-19 04:43:00,
2013-07-18 23:43:00,64.0,48.0,-100.00,SSE,165,11.0,18.0,56,0.00,,,-99.99,,2013-07-19 05:43:00,